createdAt,value
2017-12-31T00:00:11.110Z,81.50
2017-12-31T00:02:39.015Z,81.10
2017-12-31T00:05:07.335Z,79.90
2017-12-31T00:07:35.026Z,79.80
2017-12-31T00:10:02.667Z,80.70
2017-12-31T00:12:30.313Z,81.10
2017-12-31T00:14:58.963Z,82.00
2017-12-31T00:17:26.712Z,82.10
2017-12-31T00:19:54.273Z,80.30
2017-12-31T00:22:22.133Z,80.80
2017-12-31T00:24:49.776Z,81.50
2017-12-31T00:27:17.600Z,79.70
2017-12-31T00:29:46.136Z,77.70
2017-12-31T00:32:14.952Z,77.80
2017-12-31T00:34:42.873Z,79.10
2017-12-31T00:37:10.446Z,79.60
2017-12-31T00:39:40.048Z,80.10
2017-12-31T00:42:07.805Z,79.70
2017-12-31T00:44:35.549Z,77.40
2017-12-31T00:47:04.050Z,78.40
2017-12-31T00:49:31.818Z,78.50
2017-12-31T00:51:59.602Z,77.70
2017-12-31T00:54:27.351Z,75.80
2017-12-31T00:56:54.959Z,76.50
2017-12-31T00:59:22.517Z,77.90
2017-12-31T01:01:50.212Z,76.60
2017-12-31T01:04:17.893Z,77.40
2017-12-31T01:06:45.963Z,79.20
2017-12-31T01:09:13.625Z,80.80
2017-12-31T01:11:41.301Z,80.00
2017-12-31T01:14:08.858Z,79.90
2017-12-31T01:16:36.676Z,79.70
2017-12-31T01:19:04.313Z,81.50
2017-12-31T01:21:31.997Z,79.40
2017-12-31T01:24:01.692Z,82.10
2017-12-31T01:26:30.222Z,82.60
2017-12-31T01:28:57.811Z,82.50
2017-12-31T01:31:25.590Z,85.30
2017-12-31T01:33:53.155Z,85.30
2017-12-31T01:36:20.929Z,83.90
2017-12-31T01:38:48.798Z,83.00
2017-12-31T01:41:16.586Z,83.10
2017-12-31T01:43:44.496Z,84.10
2017-12-31T01:46:13.007Z,85.00
2017-12-31T01:51:41.347Z,83.80
2017-12-31T01:54:09.364Z,85.00
2017-12-31T01:56:36.970Z,83.90
2017-12-31T01:59:05.034Z,87.30
2017-12-31T02:01:34.142Z,83.60
2017-12-31T02:04:03.062Z,83.50
2017-12-31T02:06:30.889Z,82.40
2017-12-31T02:08:58.708Z,84.20
2017-12-31T02:11:26.235Z,85.30
2017-12-31T02:13:53.822Z,83.00
2017-12-31T02:16:21.402Z,84.40
2017-12-31T02:18:49.033Z,83.50
2017-12-31T02:21:16.750Z,83.10
2017-12-31T02:23:44.430Z,82.00
2017-12-31T02:26:12.038Z,82.30
2017-12-31T02:28:39.556Z,82.30
2017-12-31T02:31:07.312Z,82.20
2017-12-31T02:33:34.979Z,80.90
2017-12-31T02:36:03.581Z,80.00
2017-12-31T02:38:32.240Z,79.90
2017-12-31T02:41:00.316Z,80.00
2017-12-31T02:43:28.058Z,79.60
2017-12-31T02:45:57.178Z,79.40
2017-12-31T02:48:25.138Z,78.90
2017-12-31T02:50:52.754Z,78.70
2017-12-31T02:53:20.564Z,78.20
2017-12-31T02:55:48.247Z,77.10
2017-12-31T02:58:15.803Z,78.30
2017-12-31T03:00:44.574Z,79.30
2017-12-31T03:03:12.253Z,77.90
2017-12-31T03:05:39.818Z,78.30
2017-12-31T03:08:07.474Z,77.20
2017-12-31T03:10:35.060Z,77.50
2017-12-31T03:13:02.665Z,77.50
2017-12-31T03:15:31.252Z,77.20
2017-12-31T03:17:58.782Z,77.10
2017-12-31T03:20:26.338Z,76.60
2017-12-31T03:22:54.627Z,77.10
2017-12-31T03:25:22.955Z,76.70
2017-12-31T03:27:50.502Z,76.80
2017-12-31T03:30:18.028Z,76.70
2017-12-31T03:32:45.778Z,76.20
2017-12-31T03:35:14.393Z,76.40
2017-12-31T03:37:41.994Z,76.50
2017-12-31T03:40:10.741Z,75.20
2017-12-31T03:42:38.532Z,75.20
2017-12-31T03:45:08.009Z,75.00
2017-12-31T03:47:35.647Z,75.00
2017-12-31T03:50:04.267Z,74.40
2017-12-31T03:52:32.222Z,74.30
2017-12-31T03:55:00.916Z,74.30
2017-12-31T03:57:28.671Z,73.90
2017-12-31T03:59:56.365Z,72.80
2017-12-31T04:02:24.199Z,72.10
2017-12-31T04:04:51.824Z,71.60
2017-12-31T04:07:20.473Z,71.80
2017-12-31T04:09:49.070Z,71.90
2017-12-31T04:12:16.615Z,72.40
2017-12-31T04:14:44.161Z,72.20
2017-12-31T04:17:11.909Z,72.50
2017-12-31T04:19:39.551Z,71.50
2017-12-31T04:22:07.279Z,71.70
2017-12-31T04:24:34.897Z,71.60
2017-12-31T04:27:04.807Z,70.90
2017-12-31T04:29:32.501Z,71.10
2017-12-31T04:32:00.130Z,70.70
2017-12-31T04:34:27.711Z,70.60
2017-12-31T04:36:55.343Z,70.80
2017-12-31T04:39:23.014Z,70.50
2017-12-31T04:41:51.761Z,71.30
2017-12-31T04:44:19.667Z,70.10
2017-12-31T04:46:47.466Z,70.60
2017-12-31T04:49:14.995Z,70.70
2017-12-31T04:51:42.825Z,69.50
2017-12-31T04:54:11.376Z,70.00
2017-12-31T04:56:39.171Z,70.00
2017-12-31T04:59:06.966Z,70.60
2017-12-31T05:01:34.940Z,70.10
2017-12-31T05:04:02.687Z,70.10
2017-12-31T05:06:30.510Z,68.00
2017-12-31T05:08:58.146Z,68.60
2017-12-31T05:11:26.196Z,69.30
2017-12-31T05:13:53.857Z,69.20
2017-12-31T05:16:21.439Z,70.30
2017-12-31T05:18:48.991Z,68.70
2017-12-31T05:21:16.739Z,68.30
2017-12-31T05:23:44.627Z,68.20
2017-12-31T05:26:12.186Z,69.10
2017-12-31T05:28:39.840Z,68.30
2017-12-31T05:31:08.419Z,67.60
2017-12-31T05:33:36.041Z,67.40
2017-12-31T05:36:03.921Z,67.50
2017-12-31T05:38:31.693Z,66.60
2017-12-31T05:41:00.395Z,66.80
2017-12-31T05:43:28.150Z,66.90
2017-12-31T05:45:56.053Z,68.00
2017-12-31T05:48:23.630Z,67.70
2017-12-31T05:50:51.206Z,67.90
2017-12-31T05:53:19.708Z,66.70
2017-12-31T05:55:47.300Z,66.60
2017-12-31T05:58:14.871Z,66.50
2017-12-31T06:00:42.467Z,66.30
2017-12-31T06:03:10.910Z,65.40
2017-12-31T06:05:40.611Z,64.70
2017-12-31T06:08:08.383Z,65.60
2017-12-31T06:10:36.234Z,65.30
2017-12-31T06:13:03.794Z,65.30
2017-12-31T06:15:31.549Z,65.60
2017-12-31T06:17:59.295Z,65.40
2017-12-31T06:20:27.043Z,65.20
2017-12-31T06:22:56.326Z,65.70
2017-12-31T06:25:25.214Z,65.70
2017-12-31T06:27:52.879Z,64.60
2017-12-31T06:30:21.376Z,64.60
2017-12-31T06:32:49.011Z,64.30
2017-12-31T06:35:16.717Z,64.00
2017-12-31T06:37:45.392Z,64.10
2017-12-31T06:40:14.301Z,63.40
2017-12-31T06:42:42.052Z,63.90
2017-12-31T06:45:10.207Z,63.70
2017-12-31T06:47:38.907Z,63.20
2017-12-31T06:50:07.725Z,62.90
2017-12-31T06:52:35.351Z,63.40
2017-12-31T06:55:03.137Z,63.40
2017-12-31T06:57:30.798Z,63.20
2017-12-31T06:59:58.713Z,62.70
2017-12-31T07:02:26.259Z,62.30
2017-12-31T07:04:54.088Z,61.40
2017-12-31T07:07:21.808Z,61.30
2017-12-31T07:09:50.433Z,61.10
2017-12-31T07:12:17.983Z,61.10
2017-12-31T07:14:45.541Z,60.80
2017-12-31T07:17:13.523Z,61.20
2017-12-31T07:19:41.120Z,60.60
2017-12-31T07:22:08.705Z,60.80
2017-12-31T07:24:37.569Z,61.00
2017-12-31T07:27:05.185Z,60.40
2017-12-31T07:29:32.789Z,59.70
2017-12-31T07:32:00.416Z,59.90
2017-12-31T07:34:28.282Z,60.00
2017-12-31T07:36:56.107Z,58.90
2017-12-31T07:39:24.603Z,59.00
2017-12-31T07:41:52.168Z,59.10
2017-12-31T07:44:19.991Z,58.90
2017-12-31T07:46:47.814Z,58.30
2017-12-31T07:49:15.426Z,58.60
2017-12-31T07:51:43.181Z,58.40
2017-12-31T07:54:12.711Z,58.20
2017-12-31T07:56:41.203Z,58.40
2017-12-31T07:59:09.506Z,58.20
2017-12-31T08:01:37.062Z,58.10
2017-12-31T08:04:04.674Z,57.70
2017-12-31T08:06:32.236Z,57.40
2017-12-31T08:09:00.058Z,57.70
2017-12-31T08:11:29.837Z,57.20
2017-12-31T08:13:57.635Z,57.00
2017-12-31T08:16:25.384Z,57.30
2017-12-31T08:18:53.120Z,56.80
2017-12-31T08:21:20.778Z,56.80
2017-12-31T08:23:49.105Z,56.80
2017-12-31T08:26:16.849Z,56.80
2017-12-31T08:28:44.925Z,56.70
2017-12-31T08:31:12.498Z,56.70
2017-12-31T08:33:40.060Z,56.10
2017-12-31T08:36:07.702Z,56.20
2017-12-31T08:38:35.361Z,56.10
2017-12-31T08:41:03.886Z,56.80
2017-12-31T08:43:31.504Z,55.70
2017-12-31T08:45:59.119Z,56.30
2017-12-31T08:48:26.868Z,55.60
2017-12-31T08:50:54.492Z,56.40
2017-12-31T08:53:22.128Z,56.00
2017-12-31T08:55:50.844Z,56.10
2017-12-31T08:58:18.481Z,55.40
2017-12-31T09:00:46.050Z,55.70
2017-12-31T09:03:13.725Z,55.10
2017-12-31T09:05:41.252Z,55.00
2017-12-31T09:08:10.346Z,56.70
2017-12-31T09:10:38.846Z,56.10
2017-12-31T09:13:06.598Z,56.10
2017-12-31T09:15:35.249Z,55.50
2017-12-31T09:18:02.902Z,55.50
2017-12-31T09:20:30.624Z,55.20
2017-12-31T09:22:58.695Z,55.70
2017-12-31T09:25:26.446Z,55.20
2017-12-31T09:27:54.318Z,55.30
2017-12-31T09:30:22.828Z,55.50
2017-12-31T09:32:50.570Z,54.90
2017-12-31T09:35:19.131Z,55.00
2017-12-31T09:37:48.563Z,55.80
2017-12-31T09:40:16.471Z,55.80
2017-12-31T09:42:44.288Z,55.90
2017-12-31T09:45:12.089Z,55.40
2017-12-31T09:47:40.021Z,55.70
2017-12-31T09:50:08.706Z,56.20
2017-12-31T09:52:38.398Z,55.80
2017-12-31T09:55:06.738Z,55.80
2017-12-31T09:57:34.813Z,55.30
2017-12-31T10:00:02.424Z,55.80
2017-12-31T10:02:30.188Z,55.40
2017-12-31T10:04:57.880Z,55.90
2017-12-31T10:07:25.706Z,55.80
2017-12-31T10:09:53.992Z,55.20
2017-12-31T10:12:21.647Z,55.30
2017-12-31T10:14:49.751Z,55.40
2017-12-31T10:17:17.338Z,55.10
2017-12-31T10:19:44.991Z,55.40
2017-12-31T10:22:13.793Z,55.60
2017-12-31T10:24:41.333Z,55.30
2017-12-31T10:27:09.104Z,55.80
2017-12-31T10:29:36.774Z,55.40
2017-12-31T10:32:05.586Z,55.60
2017-12-31T10:34:33.371Z,55.00
2017-12-31T10:37:01.029Z,55.50
2017-12-31T10:39:29.506Z,55.40
2017-12-31T10:41:57.047Z,55.30
2017-12-31T10:44:24.796Z,55.30
2017-12-31T10:46:52.379Z,55.20
2017-12-31T10:49:21.390Z,54.70
2017-12-31T10:51:50.110Z,54.20
2017-12-31T10:54:19.874Z,54.20
2017-12-31T10:56:47.480Z,55.00
2017-12-31T10:59:15.276Z,54.80
2017-12-31T11:01:43.818Z,54.90
2017-12-31T11:04:12.584Z,55.40
2017-12-31T11:06:40.487Z,54.30
2017-12-31T11:09:08.271Z,54.00
2017-12-31T11:11:36.126Z,54.00
2017-12-31T11:14:03.704Z,54.30
2017-12-31T11:16:32.264Z,54.50
2017-12-31T11:18:59.906Z,54.60
2017-12-31T11:21:27.492Z,53.80
2017-12-31T11:23:56.042Z,53.40
2017-12-31T11:26:24.882Z,53.20
2017-12-31T11:28:53.380Z,53.10
2017-12-31T11:31:21.149Z,53.10
2017-12-31T11:33:48.812Z,53.40
2017-12-31T11:36:16.478Z,52.90
2017-12-31T11:38:44.167Z,52.50
2017-12-31T11:41:11.861Z,52.20
2017-12-31T11:43:40.489Z,52.00
2017-12-31T11:46:08.339Z,51.10
2017-12-31T11:48:35.866Z,51.60
2017-12-31T11:51:03.554Z,51.30
2017-12-31T11:53:31.318Z,51.50
2017-12-31T11:55:59.806Z,51.80
2017-12-31T11:58:27.648Z,51.80
2017-12-31T12:00:55.406Z,51.30
2017-12-31T12:03:23.218Z,51.10
2017-12-31T12:05:50.800Z,51.60
2017-12-31T12:08:19.458Z,50.80
2017-12-31T12:10:47.241Z,50.20
2017-12-31T12:13:14.973Z,50.40
2017-12-31T12:15:42.582Z,50.60
2017-12-31T12:18:10.135Z,50.60
2017-12-31T12:20:37.760Z,50.40
2017-12-31T12:23:05.353Z,50.40
2017-12-31T12:25:33.403Z,51.00
2017-12-31T12:28:01.173Z,49.60
2017-12-31T12:30:28.840Z,49.90
2017-12-31T12:32:56.631Z,49.40
2017-12-31T12:35:26.102Z,48.40
2017-12-31T12:37:54.707Z,49.10
2017-12-31T12:40:23.164Z,48.90
2017-12-31T12:42:51.230Z,48.50
2017-12-31T12:45:19.097Z,48.10
2017-12-31T12:47:47.100Z,48.10
2017-12-31T12:50:14.752Z,47.70
2017-12-31T12:52:42.802Z,47.50
2017-12-31T12:55:10.570Z,46.40
2017-12-31T12:57:38.169Z,44.50
2017-12-31T13:00:05.989Z,45.10
2017-12-31T13:02:33.633Z,44.30
2017-12-31T13:05:01.398Z,45.20
2017-12-31T13:07:29.233Z,44.80
2017-12-31T13:09:57.045Z,45.20
2017-12-31T13:12:24.601Z,44.40
2017-12-31T13:14:52.259Z,44.50
2017-12-31T13:17:19.840Z,43.70
2017-12-31T13:19:47.695Z,44.30
2017-12-31T13:22:15.251Z,44.60
2017-12-31T13:24:43.214Z,44.10
2017-12-31T13:27:10.877Z,43.60
2017-12-31T13:29:38.620Z,44.70
2017-12-31T13:32:07.455Z,45.30
2017-12-31T13:34:34.998Z,44.70
2017-12-31T13:37:02.983Z,45.30
2017-12-31T13:39:30.706Z,44.90
2017-12-31T13:41:58.251Z,43.10
2017-12-31T13:44:26.901Z,44.70
2017-12-31T13:46:54.562Z,44.50
2017-12-31T13:49:22.288Z,44.30
2017-12-31T13:51:50.154Z,44.70
2017-12-31T13:54:17.907Z,44.90
2017-12-31T13:56:45.681Z,44.20
2017-12-31T13:59:13.390Z,43.90
2017-12-31T14:01:41.250Z,44.80
2017-12-31T14:04:09.039Z,44.30
2017-12-31T14:06:37.451Z,44.40
2017-12-31T14:09:06.980Z,44.50
2017-12-31T14:11:34.633Z,44.20
2017-12-31T14:14:02.237Z,44.50
2017-12-31T14:16:30.063Z,43.70
2017-12-31T14:18:57.609Z,43.90
2017-12-31T14:21:25.294Z,43.80
2017-12-31T14:23:52.929Z,44.40
2017-12-31T14:26:20.711Z,44.70
2017-12-31T14:28:48.350Z,47.00
2017-12-31T14:31:16.064Z,47.60
2017-12-31T14:33:43.909Z,50.10
2017-12-31T14:36:11.545Z,51.40
2017-12-31T14:38:39.138Z,53.30
2017-12-31T14:41:06.990Z,55.40
2017-12-31T14:43:34.566Z,55.70
2017-12-31T14:46:02.433Z,56.30
2017-12-31T14:48:30.545Z,56.80
2017-12-31T14:50:59.220Z,57.20
2017-12-31T14:53:26.814Z,57.70
2017-12-31T14:55:54.605Z,57.50
2017-12-31T14:58:24.176Z,58.10
2017-12-31T15:00:51.764Z,58.50
2017-12-31T15:03:20.298Z,60.40
2017-12-31T15:05:47.898Z,59.80
2017-12-31T15:08:15.574Z,60.20
2017-12-31T15:10:43.538Z,60.40
2017-12-31T15:13:11.126Z,60.80
2017-12-31T15:15:38.930Z,61.00
2017-12-31T15:18:07.490Z,60.70
2017-12-31T15:20:35.878Z,60.30
2017-12-31T15:23:03.663Z,60.20
2017-12-31T15:25:32.435Z,61.00
2017-12-31T15:28:00.117Z,60.70
2017-12-31T15:30:28.164Z,61.20
2017-12-31T15:32:55.897Z,61.50
2017-12-31T15:35:23.425Z,61.60
2017-12-31T15:37:51.310Z,61.80
2017-12-31T15:40:18.891Z,61.70
2017-12-31T15:42:46.479Z,62.40
2017-12-31T15:45:14.135Z,63.10
2017-12-31T15:47:41.859Z,63.80
2017-12-31T15:50:09.685Z,64.50
2017-12-31T15:52:37.329Z,65.40
2017-12-31T15:55:04.923Z,65.30
2017-12-31T15:57:32.519Z,66.40
2017-12-31T16:00:00.296Z,66.30
2017-12-31T16:02:28.845Z,66.00
2017-12-31T16:04:56.577Z,66.00
2017-12-31T16:07:24.339Z,65.90
2017-12-31T16:09:51.924Z,66.00
2017-12-31T16:12:21.609Z,66.70
2017-12-31T16:14:49.507Z,66.40
2017-12-31T16:17:17.956Z,66.40
2017-12-31T16:19:45.720Z,66.40
2017-12-31T16:22:13.335Z,66.30
2017-12-31T16:24:41.046Z,67.40
2017-12-31T16:27:08.806Z,67.90
2017-12-31T16:29:36.437Z,67.20
2017-12-31T16:32:04.446Z,67.90
2017-12-31T16:34:32.301Z,68.10
2017-12-31T16:37:00.966Z,68.00
2017-12-31T16:39:30.332Z,67.50
2017-12-31T16:41:58.259Z,67.50
2017-12-31T16:44:25.872Z,68.80
2017-12-31T16:46:53.553Z,69.60
2017-12-31T16:49:21.114Z,70.00
2017-12-31T16:51:49.008Z,67.90
2017-12-31T16:54:16.812Z,67.80
2017-12-31T16:56:45.578Z,67.60
2017-12-31T16:59:13.248Z,67.80
2017-12-31T17:01:41.016Z,69.50
2017-12-31T17:04:08.856Z,68.90
2017-12-31T17:06:36.557Z,68.40
2017-12-31T17:09:04.129Z,68.50
2017-12-31T17:11:31.793Z,69.50
2017-12-31T17:13:59.429Z,69.90
2017-12-31T17:16:29.131Z,70.90
2017-12-31T17:18:56.810Z,70.40
2017-12-31T17:21:24.334Z,70.30
2017-12-31T17:23:51.916Z,71.00
2017-12-31T17:26:21.461Z,71.70
2017-12-31T17:28:49.280Z,71.50
2017-12-31T17:31:16.936Z,71.60
2017-12-31T17:33:44.516Z,71.10
2017-12-31T17:36:12.645Z,71.50
2017-12-31T17:38:40.341Z,71.50
2017-12-31T17:41:07.994Z,70.50
2017-12-31T17:43:36.567Z,70.90
2017-12-31T17:46:04.364Z,71.00
2017-12-31T17:48:32.082Z,70.80
2017-12-31T17:50:59.691Z,71.80
2017-12-31T17:53:27.291Z,71.60
2017-12-31T17:55:55.809Z,70.90
2017-12-31T17:58:23.422Z,71.50
2017-12-31T18:00:51.992Z,72.20
2017-12-31T18:03:19.895Z,72.20
2017-12-31T18:05:47.676Z,72.30
2017-12-31T18:08:15.421Z,72.40
2017-12-31T18:10:44.186Z,71.90
2017-12-31T18:13:12.587Z,71.60
2017-12-31T18:15:40.632Z,71.60
2017-12-31T18:18:09.139Z,72.20
2017-12-31T18:20:37.802Z,71.70
2017-12-31T18:23:06.554Z,71.70
2017-12-31T18:25:34.171Z,70.90
2017-12-31T18:28:02.881Z,72.10
2017-12-31T18:30:30.505Z,72.00
2017-12-31T18:32:58.080Z,71.90
2017-12-31T18:35:25.896Z,71.90
2017-12-31T18:37:54.396Z,71.30
2017-12-31T18:40:22.042Z,71.30
2017-12-31T18:42:49.827Z,71.90
2017-12-31T18:45:17.446Z,72.20
2017-12-31T18:47:45.192Z,72.60
2017-12-31T18:50:13.039Z,72.90
2017-12-31T18:52:40.666Z,73.20
2017-12-31T18:55:08.393Z,73.10
2017-12-31T18:57:37.930Z,73.10
2017-12-31T19:00:06.355Z,72.90
2017-12-31T19:02:34.111Z,72.00
2017-12-31T19:05:02.286Z,71.50
2017-12-31T19:07:31.031Z,70.60
2017-12-31T19:09:58.844Z,71.20
2017-12-31T19:12:26.484Z,71.60
2017-12-31T19:14:54.357Z,71.60
2017-12-31T19:17:21.966Z,71.90
2017-12-31T19:19:49.782Z,71.90
2017-12-31T19:22:17.685Z,71.50
2017-12-31T19:24:45.322Z,70.00
2017-12-31T19:27:13.093Z,68.20
2017-12-31T19:29:40.623Z,67.30
2017-12-31T19:32:08.191Z,67.40
2017-12-31T19:34:37.030Z,68.00
2017-12-31T19:37:04.550Z,68.60
2017-12-31T19:39:32.632Z,69.00
2017-12-31T19:42:00.703Z,68.80
2017-12-31T19:44:30.398Z,65.60
2017-12-31T19:46:58.218Z,62.10
2017-12-31T19:49:27.094Z,60.60
2017-12-31T19:51:55.226Z,58.20
2017-12-31T19:54:23.052Z,57.00
2017-12-31T19:56:50.855Z,57.30
2017-12-31T19:59:18.727Z,56.40
2017-12-31T20:01:46.578Z,55.60
2017-12-31T20:04:14.338Z,55.00
2017-12-31T20:06:42.061Z,53.70
2017-12-31T20:09:10.430Z,50.10
2017-12-31T20:11:38.314Z,50.20
2017-12-31T20:14:05.904Z,49.60
2017-12-31T20:16:33.689Z,49.10
2017-12-31T20:19:01.551Z,48.50
2017-12-31T20:21:29.281Z,49.40
2017-12-31T20:23:57.694Z,48.60
2017-12-31T20:26:25.234Z,48.60
2017-12-31T20:28:54.087Z,49.20
2017-12-31T20:31:23.141Z,49.20
2017-12-31T20:33:50.956Z,48.70
2017-12-31T20:36:19.006Z,49.10
2017-12-31T20:38:46.613Z,49.00
2017-12-31T20:41:15.358Z,49.30
2017-12-31T20:43:43.207Z,49.30
2017-12-31T20:46:11.049Z,50.00
2017-12-31T20:48:38.943Z,49.30
2017-12-31T20:51:07.537Z,49.50
2017-12-31T20:53:35.239Z,49.90
2017-12-31T20:56:03.845Z,50.00
2017-12-31T20:58:31.625Z,50.00
2017-12-31T21:00:59.258Z,49.80
2017-12-31T21:03:27.095Z,50.20
2017-12-31T21:05:55.638Z,50.20
2017-12-31T21:08:23.432Z,50.20
2017-12-31T21:10:52.170Z,50.90
2017-12-31T21:13:21.880Z,51.10
2017-12-31T21:15:49.487Z,51.30
2017-12-31T21:18:17.460Z,51.40
2017-12-31T21:20:45.043Z,51.40
2017-12-31T21:23:13.139Z,51.00
2017-12-31T21:25:41.108Z,51.00
2017-12-31T21:28:08.873Z,50.90
2017-12-31T21:30:36.438Z,51.20
2017-12-31T21:33:03.996Z,51.10
2017-12-31T21:35:31.759Z,50.90
2017-12-31T21:37:59.315Z,51.00
2017-12-31T21:40:28.015Z,51.00
2017-12-31T21:42:55.866Z,51.20
2017-12-31T21:45:23.889Z,51.20
2017-12-31T21:47:52.055Z,51.30
2017-12-31T21:50:21.340Z,51.30
2017-12-31T21:52:49.022Z,51.20
2017-12-31T21:55:17.602Z,51.60
2017-12-31T21:57:45.248Z,51.40
2017-12-31T22:00:12.886Z,51.30
2017-12-31T22:02:40.531Z,51.10
2017-12-31T22:05:08.210Z,51.40
2017-12-31T22:07:36.884Z,51.70
2017-12-31T22:10:04.830Z,51.10
2017-12-31T22:12:32.513Z,52.10
2017-12-31T22:15:00.303Z,51.60
2017-12-31T22:17:27.844Z,51.60
2017-12-31T22:19:55.493Z,51.20
2017-12-31T22:22:23.114Z,52.20
2017-12-31T22:24:53.674Z,51.90
2017-12-31T22:27:21.563Z,51.60
2017-12-31T22:29:49.129Z,51.70
2017-12-31T22:32:16.883Z,51.80
2017-12-31T22:34:44.540Z,52.00
2017-12-31T22:37:12.391Z,51.90
2017-12-31T22:39:40.511Z,52.50
2017-12-31T22:42:08.124Z,52.00
2017-12-31T22:44:36.948Z,52.40
2017-12-31T22:47:05.325Z,54.20
2017-12-31T22:49:32.978Z,54.20
2017-12-31T22:52:01.544Z,54.50
2017-12-31T22:54:29.158Z,55.50
2017-12-31T22:56:57.078Z,56.90
2017-12-31T22:59:24.738Z,58.70
2017-12-31T23:01:52.337Z,61.50
2017-12-31T23:04:19.985Z,63.80
2017-12-31T23:06:47.607Z,67.00
2017-12-31T23:09:15.590Z,68.10
2017-12-31T23:11:43.353Z,70.40
2017-12-31T23:14:10.961Z,72.40
2017-12-31T23:16:39.445Z,76.60
2017-12-31T23:19:07.157Z,76.60
2017-12-31T23:21:34.875Z,76.00
2017-12-31T23:24:02.709Z,75.60
2017-12-31T23:26:30.267Z,73.70
2017-12-31T23:28:57.911Z,73.30
2017-12-31T23:31:26.600Z,74.10
2017-12-31T23:33:54.405Z,72.20
2017-12-31T23:36:22.109Z,74.00
2017-12-31T23:38:50.403Z,72.80
2017-12-31T23:41:18.036Z,73.10
2017-12-31T23:43:45.612Z,74.60
2017-12-31T23:46:13.188Z,73.30
2017-12-31T23:48:40.991Z,73.60
2017-12-31T23:51:08.649Z,72.70
2017-12-31T23:53:37.090Z,73.30
2017-12-31T23:56:05.860Z,72.80
2017-12-31T23:58:33.536Z,72.80
